Terminal Aerodrome Forecast
Issued by NWS

Home | Current Version | Previous Version | Text Only | Print | Product List | Glossary On
Versions: 1 2 3 4 5 6 7 8 9 10 11 12 13 14 15 16 17 18 19 20 21
027
FTUS43 KDTX 281954 AAA
TAFMBS
TAF AMD
KMBS 281954Z 2820/2918 21011G20KT P6SM SCT045 BKN100
     FM290000 20007KT P6SM SCT060 BKN150
     FM291500 19012KT P6SM BKN050 BKN250=

USA.gov is the U.S. government's official web portal to all federal, state and local government web resources and services.